Cushman Dam, Washington
Current Conditions -  °F | °C
As of 5:18 AM on Tuesday 21 Oct 2014 (Local Time) from KSHN Reporting Station
Moderate Rain Moderate Rain  
Wind Chill: 53°   Ceiling: 2600
Heat Index: 53°   Visibility: 3mi
Dew Point: 51°   Wind: 3mph
Humidity: 93%   Direction: 170°S
Pressure: 29.82"   Gusts: NA
Location:  47.4532°N, 123.173°W
Report Text: KSHN 211218Z AUTO 17003KT 3SM RA BR SCT021 BKN026 OVC045 12/11 A2982 RMK AO2 P0002 T01170106 TSNO
Loading
Personal Weather Stations






























Interactive Weather Map
Tropical Storm Tracking
New forecast layout! Learn more

10-Day Weather Forecast

Advertisements
Track Severe Weather on mobile